createdAt,value
2018-08-23T00:01:16.429Z,20.70
2018-08-23T00:03:45.276Z,20.60
2018-08-23T00:06:12.939Z,20.70
2018-08-23T00:08:46.775Z,20.70
2018-08-23T00:11:14.515Z,20.60
2018-08-23T00:13:43.263Z,20.70
2018-08-23T00:16:10.997Z,20.60
2018-08-23T00:18:38.667Z,20.60
2018-08-23T00:21:11.658Z,20.50
2018-08-23T00:23:39.921Z,20.40
2018-08-23T00:26:08.641Z,20.40
2018-08-23T00:28:36.346Z,20.40
2018-08-23T00:31:04.033Z,20.40
2018-08-23T00:33:32.140Z,20.30
2018-08-23T00:36:00.603Z,20.20
2018-08-23T00:38:28.278Z,20.10
2018-08-23T00:40:57.045Z,20.00
2018-08-23T00:43:25.463Z,20.00
2018-08-23T00:45:53.416Z,19.80
2018-08-23T00:48:21.070Z,19.80
2018-08-23T00:51:05.265Z,19.80
2018-08-23T00:53:35.393Z,19.90
2018-08-23T00:56:15.673Z,20.00
2018-08-23T00:58:46.414Z,20.00
2018-08-23T01:01:14.567Z,20.00
2018-08-23T01:03:44.049Z,20.10
2018-08-23T01:06:12.542Z,20.10
2018-08-23T01:08:40.334Z,20.00
2018-08-23T01:11:08.822Z,20.00
2018-08-23T01:13:36.473Z,19.90
2018-08-23T01:16:04.169Z,19.80
2018-08-23T01:18:31.998Z,19.80
2018-08-23T01:21:01.286Z,19.80
2018-08-23T01:23:29.918Z,19.70
2018-08-23T01:25:57.621Z,19.70
2018-08-23T01:28:25.538Z,19.70
2018-08-23T01:30:53.450Z,19.70
2018-08-23T01:33:22.681Z,19.70
2018-08-23T01:35:51.209Z,19.60
2018-08-23T01:38:18.969Z,19.60
2018-08-23T01:40:46.719Z,19.60
2018-08-23T01:43:14.420Z,19.60
2018-08-23T01:45:42.085Z,19.50
2018-08-23T01:48:10.574Z,19.50
2018-08-23T01:50:38.263Z,19.40
2018-08-23T01:53:06.069Z,19.30
2018-08-23T01:55:33.750Z,19.20
2018-08-23T01:58:03.171Z,19.30
2018-08-23T02:00:33.062Z,19.30
2018-08-23T02:03:02.306Z,19.30
2018-08-23T02:05:51.360Z,19.30
2018-08-23T02:08:19.046Z,19.20
2018-08-23T02:10:46.686Z,19.30
2018-08-23T02:13:23.231Z,19.30
2018-08-23T02:15:52.146Z,19.30
2018-08-23T02:18:19.853Z,19.10
2018-08-23T02:20:49.569Z,19.10
2018-08-23T02:23:18.062Z,19.20
2018-08-23T02:25:45.778Z,19.10
2018-08-23T02:28:13.503Z,19.00
2018-08-23T02:30:55.962Z,19.00
2018-08-23T02:33:24.847Z,18.80
2018-08-23T02:36:19.877Z,18.70
2018-08-23T02:38:51.653Z,18.70
2018-08-23T02:41:19.379Z,18.70
2018-08-23T02:43:47.702Z,18.60
2018-08-23T02:46:15.566Z,18.70
2018-08-23T02:48:43.265Z,18.60
2018-08-23T02:51:11.015Z,18.60
2018-08-23T02:53:41.006Z,18.50
2018-08-23T02:56:11.322Z,18.50
2018-08-23T02:58:47.376Z,18.50
2018-08-23T03:01:15.038Z,18.40
2018-08-23T03:03:59.010Z,18.40
2018-08-23T03:06:29.800Z,18.40
2018-08-23T03:08:57.605Z,18.20
2018-08-23T03:11:25.770Z,18.20
2018-08-23T03:13:55.111Z,18.30
2018-08-23T03:16:22.773Z,18.30
2018-08-23T03:18:50.541Z,18.30
2018-08-23T03:21:18.226Z,18.30
2018-08-23T03:23:46.737Z,18.20
2018-08-23T03:26:14.381Z,18.20
2018-08-23T03:28:42.714Z,18.20
2018-08-23T03:31:10.374Z,18.20
2018-08-23T03:33:38.428Z,18.10
2018-08-23T03:36:08.306Z,18.10
2018-08-23T03:38:36.249Z,18.10
2018-08-23T03:41:04.701Z,18.20
2018-08-23T03:43:32.432Z,18.20
2018-08-23T03:46:00.529Z,18.40
2018-08-23T03:48:28.343Z,18.30
2018-08-23T03:50:56.965Z,18.20
2018-08-23T03:53:45.381Z,18.30
2018-08-23T03:56:13.247Z,18.20
2018-08-23T03:58:41.378Z,18.10
2018-08-23T04:01:12.706Z,18.10
2018-08-23T04:03:41.473Z,18.00
2018-08-23T04:06:26.257Z,17.90
2018-08-23T04:08:53.923Z,17.80
2018-08-23T04:11:21.546Z,17.90
2018-08-23T04:13:49.699Z,17.90
2018-08-23T04:16:24.504Z,17.80
2018-08-23T04:18:52.478Z,17.70
2018-08-23T04:21:20.238Z,17.70
2018-08-23T04:23:47.937Z,17.70
2018-08-23T04:26:15.825Z,17.70
2018-08-23T04:28:47.623Z,17.70
2018-08-23T04:31:15.344Z,17.60
2018-08-23T04:33:43.046Z,17.50
2018-08-23T04:36:25.958Z,17.50
2018-08-23T04:38:58.166Z,17.50
2018-08-23T04:41:32.245Z,17.50
2018-08-23T04:44:03.510Z,17.50
2018-08-23T04:46:32.437Z,17.50
2018-08-23T04:49:01.387Z,17.60
2018-08-23T04:51:29.030Z,17.60
2018-08-23T04:53:57.130Z,17.40
2018-08-23T04:56:24.766Z,17.40
2018-08-23T04:58:52.434Z,17.30
2018-08-23T05:01:20.087Z,17.30
2018-08-23T05:03:47.946Z,17.30
2018-08-23T05:06:15.614Z,17.40
2018-08-23T05:08:43.538Z,17.40
2018-08-23T05:11:11.270Z,17.50
2018-08-23T05:13:39.013Z,17.50
2018-08-23T05:16:06.783Z,17.50
2018-08-23T05:18:34.527Z,17.50
2018-08-23T05:21:03.742Z,17.60
2018-08-23T05:26:04.397Z,17.70
2018-08-23T05:28:32.447Z,17.70
2018-08-23T05:31:00.135Z,17.80
2018-08-23T05:33:27.789Z,17.80
2018-08-23T05:35:55.568Z,18.00
2018-08-23T05:38:23.511Z,18.00
2018-08-23T05:40:55.184Z,18.00
2018-08-23T05:43:23.565Z,18.10
2018-08-23T05:45:54.826Z,18.20
2018-08-23T05:48:31.349Z,18.30
2018-08-23T05:51:08.909Z,18.20
2018-08-23T05:53:39.999Z,18.30
2018-08-23T05:56:08.335Z,18.30
2018-08-23T05:58:36.067Z,18.40
2018-08-23T06:01:03.889Z,18.40
2018-08-23T06:03:31.578Z,18.50
2018-08-23T06:05:59.254Z,18.50
2018-08-23T06:08:26.891Z,18.60
2018-08-23T06:10:58.782Z,18.60
2018-08-23T06:13:27.340Z,18.60
2018-08-23T06:15:56.063Z,18.70
2018-08-23T06:18:25.795Z,18.80
2018-08-23T06:20:53.985Z,18.90
2018-08-23T06:23:26.189Z,19.00
2018-08-23T06:25:54.008Z,19.10
2018-08-23T06:28:25.941Z,19.30
2018-08-23T06:30:59.362Z,19.50
2018-08-23T06:33:37.912Z,19.60
2018-08-23T06:36:07.606Z,19.90
2018-08-23T06:38:35.988Z,19.90
2018-08-23T06:41:06.186Z,19.90
2018-08-23T06:43:34.670Z,19.90
2018-08-23T06:46:02.960Z,19.90
2018-08-23T06:48:30.922Z,20.00
2018-08-23T06:50:59.671Z,20.20
2018-08-23T06:53:34.159Z,20.30
2018-08-23T06:56:01.972Z,20.50
2018-08-23T06:58:29.634Z,20.50
2018-08-23T07:00:57.875Z,20.70
2018-08-23T07:03:25.517Z,20.80
2018-08-23T07:05:53.207Z,20.90
2018-08-23T07:08:22.535Z,21.00
2018-08-23T07:10:57.471Z,21.00
2018-08-23T07:13:25.122Z,21.10
2018-08-23T07:15:59.622Z,21.20
2018-08-23T07:18:28.393Z,21.30
2018-08-23T07:20:56.146Z,21.40
2018-08-23T07:23:31.471Z,21.40
2018-08-23T07:25:59.558Z,21.50
2018-08-23T07:28:27.262Z,21.60
2018-08-23T07:30:54.926Z,21.80
2018-08-23T07:33:22.604Z,21.90
2018-08-23T07:36:00.325Z,22.00
2018-08-23T07:38:28.361Z,22.00
2018-08-23T07:40:57.141Z,22.10
2018-08-23T07:43:25.461Z,22.20
2018-08-23T07:45:53.186Z,22.20
2018-08-23T07:48:21.030Z,22.40
2018-08-23T07:50:48.662Z,22.50
2018-08-23T07:53:17.771Z,22.60
2018-08-23T07:55:45.365Z,22.70
2018-08-23T07:58:13.243Z,23.00
2018-08-23T08:00:42.177Z,23.10
2018-08-23T08:03:10.950Z,23.10
2018-08-23T08:05:40.558Z,23.20
2018-08-23T08:08:09.270Z,23.40
2018-08-23T08:10:41.162Z,23.50
2018-08-23T08:13:09.474Z,23.40
2018-08-23T08:15:37.154Z,23.60
2018-08-23T08:18:18.470Z,23.70
2018-08-23T08:20:52.977Z,23.90
2018-08-23T08:23:21.578Z,24.30
2018-08-23T08:25:49.341Z,24.60
2018-08-23T08:28:18.340Z,24.70
2018-08-23T08:30:46.650Z,24.80
2018-08-23T08:33:20.420Z,25.00
2018-08-23T08:35:48.014Z,25.00
2018-08-23T08:38:16.819Z,24.90
2018-08-23T08:40:44.495Z,25.00
2018-08-23T08:43:12.198Z,25.20
2018-08-23T08:45:40.547Z,25.00
2018-08-23T08:48:17.576Z,25.00
2018-08-23T08:50:56.222Z,24.90
2018-08-23T08:53:25.006Z,24.80
2018-08-23T08:55:53.054Z,24.90
2018-08-23T08:58:20.730Z,25.10
2018-08-23T09:00:50.095Z,25.10
2018-08-23T09:03:18.618Z,25.10
2018-08-23T09:05:46.662Z,25.20
2018-08-23T09:08:14.758Z,25.20
2018-08-23T09:10:43.219Z,25.10
2018-08-23T09:13:11.350Z,25.10
2018-08-23T09:15:39.086Z,25.10
2018-08-23T09:18:07.409Z,25.20
2018-08-23T09:20:35.193Z,25.30
2018-08-23T09:23:02.814Z,25.30
2018-08-23T09:25:36.959Z,25.50
2018-08-23T09:28:08.417Z,25.60
2018-08-23T09:30:36.106Z,25.80
2018-08-23T09:33:08.193Z,25.80
2018-08-23T09:35:36.106Z,25.90
2018-08-23T09:38:09.391Z,25.80
2018-08-23T09:40:37.061Z,25.80
2018-08-23T09:43:05.250Z,25.90
2018-08-23T09:45:35.996Z,25.90
2018-08-23T09:48:03.831Z,26.10
2018-08-23T09:50:31.570Z,26.20
2018-08-23T09:52:59.229Z,26.30
2018-08-23T09:55:28.302Z,26.30
2018-08-23T09:57:56.419Z,26.30
2018-08-23T10:00:29.558Z,26.40
2018-08-23T10:03:04.981Z,26.60
2018-08-23T10:05:38.900Z,26.70
2018-08-23T10:08:13.533Z,27.00
2018-08-23T10:10:46.874Z,27.00
2018-08-23T10:13:21.287Z,26.80
2018-08-23T10:15:54.920Z,27.00
2018-08-23T10:18:28.248Z,27.10
2018-08-23T10:21:00.282Z,27.10
2018-08-23T10:23:29.009Z,27.10
2018-08-23T10:25:58.461Z,27.00
2018-08-23T10:28:31.469Z,27.20
2018-08-23T10:30:59.170Z,27.30
2018-08-23T10:33:27.002Z,27.30
2018-08-23T10:35:55.570Z,27.30
2018-08-23T10:38:25.549Z,27.50
2018-08-23T10:40:57.855Z,27.50
2018-08-23T10:43:31.032Z,27.70
2018-08-23T10:46:02.702Z,27.70
2018-08-23T10:48:31.666Z,27.80
2018-08-23T10:50:59.407Z,28.00
2018-08-23T10:53:29.955Z,28.20
2018-08-23T10:55:57.798Z,28.20
2018-08-23T10:58:25.778Z,28.30
2018-08-23T11:00:53.578Z,28.40
2018-08-23T11:03:21.284Z,28.30
2018-08-23T11:05:49.967Z,28.10
2018-08-23T11:08:21.444Z,28.20
2018-08-23T11:10:54.778Z,28.40
2018-08-23T11:13:29.683Z,28.50
2018-08-23T11:16:04.115Z,28.00
2018-08-23T11:18:37.358Z,28.00
2018-08-23T11:21:05.926Z,28.00
2018-08-23T11:23:35.672Z,28.40
2018-08-23T11:26:03.438Z,28.40
2018-08-23T11:28:33.026Z,28.70
2018-08-23T11:31:01.315Z,28.70
2018-08-23T11:33:29.022Z,28.50
2018-08-23T11:35:56.761Z,28.10
2018-08-23T11:38:24.457Z,28.20
2018-08-23T11:40:52.230Z,28.00
2018-08-23T11:43:20.270Z,28.10
2018-08-23T11:45:54.374Z,28.20
2018-08-23T11:48:22.090Z,28.50
2018-08-23T11:50:49.882Z,28.90
2018-08-23T11:53:17.749Z,29.10
2018-08-23T11:55:45.992Z,29.40
2018-08-23T11:58:13.664Z,29.50
2018-08-23T12:00:41.479Z,29.70
2018-08-23T12:03:09.402Z,29.70
2018-08-23T12:05:37.282Z,29.60
2018-08-23T12:08:05.338Z,29.60
2018-08-23T12:10:33.085Z,29.80
2018-08-23T12:13:00.818Z,29.80
2018-08-23T12:15:29.619Z,30.10
2018-08-23T12:17:57.747Z,30.00
2018-08-23T12:20:27.852Z,30.20
2018-08-23T12:22:55.558Z,30.10
2018-08-23T12:25:23.235Z,30.30
2018-08-23T12:27:58.254Z,30.30
2018-08-23T12:30:27.023Z,30.20
2018-08-23T12:32:54.988Z,30.10
2018-08-23T12:35:25.300Z,30.00
2018-08-23T12:37:59.080Z,30.20
2018-08-23T12:40:33.367Z,30.50
2018-08-23T12:43:01.981Z,30.80
2018-08-23T12:45:31.126Z,30.80
2018-08-23T12:47:58.986Z,30.70
2018-08-23T12:50:26.665Z,30.60
2018-08-23T12:52:54.441Z,30.20
2018-08-23T12:55:24.771Z,29.90
2018-08-23T12:57:55.200Z,30.20
2018-08-23T13:00:23.881Z,30.80
2018-08-23T13:02:52.723Z,30.90
2018-08-23T13:05:20.880Z,30.60
2018-08-23T13:07:49.102Z,30.60
2018-08-23T13:10:19.590Z,30.20
2018-08-23T13:12:50.378Z,30.30
2018-08-23T13:15:18.085Z,30.80
2018-08-23T13:17:45.972Z,30.90
2018-08-23T13:20:13.646Z,30.70
2018-08-23T13:22:43.175Z,30.60
2018-08-23T13:25:13.628Z,30.40
2018-08-23T13:27:43.373Z,30.80
2018-08-23T13:30:14.013Z,30.50
2018-08-23T13:32:41.798Z,29.90
2018-08-23T13:35:10.369Z,29.50
2018-08-23T13:37:39.024Z,30.00
2018-08-23T13:40:11.895Z,30.40
2018-08-23T13:42:39.729Z,30.20
2018-08-23T13:45:07.598Z,30.10
2018-08-23T13:47:35.358Z,30.60
2018-08-23T13:50:06.130Z,30.90
2018-08-23T13:52:34.599Z,31.50
2018-08-23T13:55:02.424Z,32.30
2018-08-23T13:57:30.295Z,33.00
2018-08-23T13:59:57.997Z,33.80
2018-08-23T14:02:25.761Z,33.60
2018-08-23T14:04:53.522Z,34.40
2018-08-23T14:07:22.080Z,34.60
2018-08-23T14:09:49.922Z,35.30
2018-08-23T14:12:17.713Z,35.90
2018-08-23T14:14:45.483Z,36.70
2018-08-23T14:17:13.363Z,36.80
2018-08-23T14:19:41.127Z,36.70
2018-08-23T14:22:08.830Z,35.10
2018-08-23T14:24:37.581Z,34.20
2018-08-23T14:27:06.117Z,33.90
2018-08-23T14:29:34.118Z,34.00
2018-08-23T14:32:01.823Z,34.60
2018-08-23T14:34:30.353Z,35.10
2018-08-23T14:36:58.041Z,35.10
2018-08-23T14:39:27.455Z,34.90
2018-08-23T14:41:55.319Z,35.10
2018-08-23T14:44:23.161Z,36.70
2018-08-23T14:46:56.335Z,37.60
2018-08-23T14:49:29.614Z,37.60
2018-08-23T14:51:57.883Z,37.30
2018-08-23T14:54:32.145Z,36.80
2018-08-23T14:57:06.941Z,36.30
2018-08-23T14:59:35.528Z,35.90
2018-08-23T15:02:03.954Z,35.50
2018-08-23T15:04:32.518Z,35.50
2018-08-23T15:07:00.279Z,36.10
2018-08-23T15:09:29.252Z,36.70
2018-08-23T15:11:58.745Z,37.20
2018-08-23T15:14:27.345Z,36.70
2018-08-23T15:16:55.958Z,36.60
2018-08-23T15:19:26.820Z,36.60
2018-08-23T15:21:55.968Z,37.00
2018-08-23T15:24:26.010Z,37.50
2018-08-23T15:26:55.538Z,37.30
2018-08-23T15:29:23.501Z,37.50
2018-08-23T15:31:52.414Z,37.10
2018-08-23T15:34:22.643Z,36.10
2018-08-23T15:36:53.275Z,36.50
2018-08-23T15:39:24.294Z,37.20
2018-08-23T15:41:58.657Z,37.60
2018-08-23T15:44:30.242Z,37.30
2018-08-23T15:47:01.466Z,38.30
2018-08-23T15:49:31.629Z,37.80
2018-08-23T15:52:00.862Z,36.20
2018-08-23T15:54:33.810Z,36.30
2018-08-23T15:57:01.850Z,35.70
2018-08-23T15:59:29.664Z,35.20
2018-08-23T16:01:58.147Z,35.10
2018-08-23T16:04:26.721Z,35.10
2018-08-23T16:06:55.277Z,35.10
2018-08-23T16:09:23.916Z,35.10
2018-08-23T16:11:52.593Z,35.10
2018-08-23T16:14:21.987Z,35.20
2018-08-23T16:16:55.796Z,34.90
2018-08-23T16:19:29.297Z,34.70
2018-08-23T16:21:58.231Z,34.00
2018-08-23T16:24:27.582Z,33.40
2018-08-23T16:27:00.846Z,32.90
2018-08-23T16:29:28.763Z,32.10
2018-08-23T16:31:56.720Z,30.70
2018-08-23T16:34:25.282Z,29.80
2018-08-23T16:36:52.969Z,29.30
2018-08-23T16:39:20.896Z,29.60
2018-08-23T16:41:48.626Z,30.60
2018-08-23T16:44:16.547Z,31.70
2018-08-23T16:46:44.403Z,32.30
2018-08-23T16:49:13.478Z,32.30
2018-08-23T16:51:41.361Z,32.70
2018-08-23T16:54:09.085Z,32.50
2018-08-23T16:56:36.787Z,31.80
2018-08-23T16:59:04.589Z,32.00
2018-08-23T17:01:32.341Z,32.00
2018-08-23T17:04:00.383Z,31.90
2018-08-23T17:06:28.630Z,31.90
2018-08-23T17:08:56.562Z,31.80
2018-08-23T17:11:24.395Z,31.80
2018-08-23T17:13:52.075Z,32.00
2018-08-23T17:16:25.501Z,31.20
2018-08-23T17:18:53.458Z,31.60
2018-08-23T17:21:21.420Z,31.70
2018-08-23T17:23:49.255Z,31.30
2018-08-23T17:26:16.962Z,30.80
2018-08-23T17:28:44.633Z,30.60
2018-08-23T17:31:13.290Z,31.00
2018-08-23T17:33:40.977Z,30.30
2018-08-23T17:36:08.721Z,30.20
2018-08-23T17:38:36.418Z,30.30
2018-08-23T17:41:04.222Z,29.60
2018-08-23T17:43:31.938Z,28.70
2018-08-23T17:45:59.649Z,28.10
2018-08-23T17:48:27.662Z,27.40
2018-08-23T17:50:55.373Z,27.00
2018-08-23T17:53:24.224Z,26.50
2018-08-23T17:55:52.030Z,26.00
2018-08-23T17:58:19.746Z,25.90
2018-08-23T18:00:47.477Z,25.70
2018-08-23T18:03:15.198Z,25.60
2018-08-23T18:05:42.893Z,25.60
2018-08-23T18:08:10.593Z,25.40
2018-08-23T18:10:38.264Z,25.00
2018-08-23T18:13:06.348Z,25.00
2018-08-23T18:15:39.492Z,24.90
2018-08-23T18:18:07.234Z,24.70
2018-08-23T18:20:38.201Z,24.60
2018-08-23T18:23:05.918Z,24.50
2018-08-23T18:25:33.741Z,24.60
2018-08-23T18:28:01.626Z,24.40
2018-08-23T18:30:29.495Z,24.30
2018-08-23T18:32:57.921Z,24.30
2018-08-23T18:35:25.587Z,24.20
2018-08-23T18:37:53.269Z,24.10
2018-08-23T18:40:20.985Z,24.00
2018-08-23T18:42:48.705Z,24.10
2018-08-23T18:45:16.393Z,24.10
2018-08-23T18:47:44.271Z,24.00
2018-08-23T18:50:21.585Z,24.00
2018-08-23T18:52:53.772Z,23.90
2018-08-23T18:55:25.707Z,23.90
2018-08-23T18:57:57.581Z,23.60
2018-08-23T19:00:30.562Z,23.60
2018-08-23T19:03:04.499Z,23.50
2018-08-23T19:05:36.166Z,23.50
2018-08-23T19:08:09.700Z,23.50
2018-08-23T19:10:43.263Z,23.50
2018-08-23T19:13:17.018Z,23.40
2018-08-23T19:15:53.807Z,23.40
2018-08-23T19:18:32.550Z,23.30
2018-08-23T19:21:04.531Z,23.30
2018-08-23T19:23:35.632Z,23.20
2018-08-23T19:26:06.022Z,23.10
2018-08-23T19:28:37.128Z,23.10
2018-08-23T19:31:10.770Z,23.10
2018-08-23T19:33:40.430Z,23.00
2018-08-23T19:36:12.443Z,22.90
2018-08-23T19:38:47.804Z,22.80
2018-08-23T19:41:15.681Z,22.90
2018-08-23T19:43:46.862Z,22.80
2018-08-23T19:46:26.882Z,22.70
2018-08-23T19:49:02.396Z,22.70
2018-08-23T19:51:32.792Z,22.60
2018-08-23T19:54:05.067Z,22.60
2018-08-23T19:56:37.197Z,22.40
2018-08-23T19:59:08.473Z,22.30
2018-08-23T20:01:40.941Z,22.30
2018-08-23T20:04:12.439Z,22.30
2018-08-23T20:06:44.915Z,22.30
2018-08-23T20:09:17.022Z,22.20
2018-08-23T20:11:46.432Z,22.10
2018-08-23T20:14:19.659Z,22.20
2018-08-23T20:16:51.101Z,22.10
2018-08-23T20:19:22.944Z,22.20
2018-08-23T20:21:54.936Z,22.20
2018-08-23T20:24:27.993Z,22.20
2018-08-23T20:27:00.874Z,22.00
2018-08-23T20:29:31.822Z,22.00
2018-08-23T20:32:05.069Z,22.00
2018-08-23T20:34:42.356Z,21.90
2018-08-23T20:37:13.976Z,21.90
2018-08-23T20:39:44.811Z,21.80
2018-08-23T20:42:16.398Z,21.80
2018-08-23T20:44:53.812Z,21.80
2018-08-23T20:47:23.800Z,21.70
2018-08-23T20:49:55.528Z,21.80
2018-08-23T20:52:24.021Z,21.80
2018-08-23T20:54:55.499Z,21.80
2018-08-23T20:57:26.615Z,21.60
2018-08-23T20:59:58.053Z,21.50
2018-08-23T21:02:30.547Z,21.40
2018-08-23T21:05:02.034Z,21.30
2018-08-23T21:07:33.109Z,21.20
2018-08-23T21:10:05.224Z,21.30
2018-08-23T21:12:35.413Z,21.30
2018-08-23T21:15:08.617Z,21.20
2018-08-23T21:17:39.895Z,21.10
2018-08-23T21:20:10.148Z,20.90
2018-08-23T21:22:40.833Z,20.90
2018-08-23T21:25:13.725Z,20.80
2018-08-23T21:27:44.751Z,20.70
2018-08-23T21:30:15.295Z,20.70
2018-08-23T21:32:45.886Z,20.70
2018-08-23T21:35:19.066Z,20.60
2018-08-23T21:37:51.802Z,20.60
2018-08-23T21:40:22.505Z,20.60
2018-08-23T21:42:53.908Z,20.60
2018-08-23T21:45:27.421Z,20.60
2018-08-23T21:48:05.186Z,20.50
2018-08-23T21:50:36.393Z,20.70
2018-08-23T21:53:09.032Z,20.70
2018-08-23T21:55:40.841Z,20.70
2018-08-23T21:58:11.567Z,20.60
2018-08-23T22:00:48.179Z,20.50
2018-08-23T22:03:17.596Z,20.50
2018-08-23T22:05:52.295Z,20.50
2018-08-23T22:08:20.693Z,20.50
2018-08-23T22:10:50.162Z,20.50
2018-08-23T22:13:17.911Z,20.50
2018-08-23T22:15:50.276Z,20.50
2018-08-23T22:18:18.750Z,20.40
2018-08-23T22:20:46.905Z,20.50
2018-08-23T22:23:16.246Z,20.40
2018-08-23T22:25:44.297Z,20.50
2018-08-23T22:28:11.999Z,20.50
2018-08-23T22:30:40.583Z,20.40
2018-08-23T22:33:09.546Z,20.30
2018-08-23T22:35:37.323Z,20.20
2018-08-23T22:38:05.635Z,20.20
2018-08-23T22:40:33.554Z,20.10
2018-08-23T22:43:01.314Z,20.10
2018-08-23T22:45:29.062Z,20.20
2018-08-23T22:47:56.765Z,20.20
2018-08-23T22:50:25.527Z,20.10
2018-08-23T22:52:53.222Z,20.00
2018-08-23T22:55:20.929Z,19.90
2018-08-23T22:57:50.285Z,19.90
2018-08-23T23:00:18.082Z,19.90
2018-08-23T23:02:45.909Z,19.80
2018-08-23T23:05:13.659Z,19.80
2018-08-23T23:07:41.383Z,19.70
2018-08-23T23:10:09.182Z,19.70
2018-08-23T23:12:37.267Z,19.70
2018-08-23T23:15:10.957Z,19.70
2018-08-23T23:17:38.718Z,19.70
2018-08-23T23:20:06.881Z,19.80
2018-08-23T23:22:34.574Z,19.70
2018-08-23T23:25:03.170Z,19.80
2018-08-23T23:27:31.374Z,20.00
2018-08-23T23:29:59.839Z,20.10
2018-08-23T23:32:27.582Z,20.20
2018-08-23T23:34:56.030Z,20.30
2018-08-23T23:37:24.413Z,20.30
2018-08-23T23:39:54.899Z,20.30
2018-08-23T23:42:22.902Z,20.40
2018-08-23T23:44:50.759Z,20.40
2018-08-23T23:47:18.582Z,20.40
2018-08-23T23:49:46.314Z,20.50
2018-08-23T23:52:14.025Z,20.50
2018-08-23T23:54:42.053Z,20.50
2018-08-23T23:57:09.778Z,20.50
2018-08-23T23:59:37.486Z,20.50
